Time;durP1;ratioP1;P1;durP2;ratioP2;P2;SDS_P1;SDS_P2;PMS_P1;PMS_P2;Temp;Humidity;BMP_temperature;BMP_pressure;BME280_temperature;BME280_humidity;BME280_pressure;Samples;Min_cycle;Max_cycle;Signal;HPM_P1;HPM_P2
2021/04/16 00:01:06;;;;;;;7.40;5.10;;;5.40;99.90;;;;;;5073957;28;20320;-77
2021/04/16 00:03:32;;;;;;;6.43;4.83;;;5.40;99.90;;;;;;5073697;28;20186;-76
2021/04/16 00:05:57;;;;;;;6.27;5.53;;;5.40;99.90;;;;;;5067102;28;20318;-77
2021/04/16 00:08:33;;;;;;;6.83;4.37;;;5.40;99.90;;;;;;5085410;28;20180;-77
2021/04/16 00:11:15;;;;;;;11.67;5.00;;;5.40;99.90;;;;;;5084804;28;20211;-77
2021/04/16 00:13:41;;;;;;;8.43;5.13;;;5.40;99.90;;;;;;5074075;28;20443;-77
2021/04/16 00:16:09;;;;;;;7.80;5.37;;;5.30;99.90;;;;;;5072626;28;20549;-77
2021/04/16 00:18:35;;;;;;;7.07;4.63;;;5.30;99.90;;;;;;5075579;28;20162;-77
2021/04/16 00:21:00;;;;;;;5.87;5.27;;;5.30;99.90;;;;;;5076238;28;20816;-77
2021/04/16 00:23:27;;;;;;;6.37;4.47;;;5.20;99.90;;;;;;5073481;28;20662;-77
2021/04/16 00:25:53;;;;;;;5.57;4.90;;;5.20;99.90;;;;;;5075209;28;20185;-78
2021/04/16 00:28:19;;;;;;;6.13;4.77;;;5.30;99.90;;;;;;5075632;28;20916;-76
2021/04/16 00:30:49;;;;;;;5.30;4.80;;;5.30;99.90;;;;;;5076353;28;20556;-77
2021/04/16 00:33:15;;;;;;;8.00;5.17;;;5.20;99.90;;;;;;5077245;28;20420;-79
2021/04/16 00:35:41;;;;;;;6.27;5.40;;;5.20;99.90;;;;;;5075400;28;20416;-76
2021/04/16 00:38:07;;;;;;;7.43;4.80;;;5.20;99.90;;;;;;5073802;28;20410;-77
2021/04/16 00:40:40;;;;;;;5.73;4.57;;;5.20;99.90;;;;;;5072890;28;20181;-77
2021/04/16 00:43:06;;;;;;;6.40;5.10;;;5.20;99.90;;;;;;5073268;28;20408;-77
2021/04/16 00:45:34;;;;;;;7.10;4.93;;;5.10;99.90;;;;;;5076880;28;20427;-78
2021/04/16 00:48:02;;;;;;;7.50;5.80;;;5.10;99.90;;;;;;5073271;28;20412;-77
2021/04/16 00:50:45;;;;;;;7.57;5.10;;;5.10;99.90;;;;;;5074896;28;20439;-77
2021/04/16 00:53:12;;;;;;;8.00;5.80;;;5.10;99.90;;;;;;5076815;28;20488;-77
2021/04/16 00:55:38;;;;;;;6.57;5.20;;;5.10;99.90;;;;;;5077585;28;20424;-77
2021/04/16 00:58:04;;;;;;;8.53;6.30;;;5.10;99.90;;;;;;5075819;28;20420;-77
2021/04/16 01:00:30;;;;;;;7.10;4.63;;;5.00;99.90;;;;;;5074399;28;20174;-77
2021/04/16 01:02:56;;;;;;;6.40;5.00;;;5.00;99.90;;;;;;5076074;28;20447;-76
2021/04/16 01:05:22;;;;;;;7.80;5.33;;;5.00;99.90;;;;;;5076376;28;20428;-77
2021/04/16 01:07:48;;;;;;;6.97;5.50;;;5.00;99.90;;;;;;5071813;28;20420;-77
2021/04/16 01:10:15;;;;;;;6.83;5.23;;;4.90;99.90;;;;;;5073278;28;20171;-77
2021/04/16 01:12:40;;;;;;;7.30;5.73;;;4.90;99.90;;;;;;5076548;28;20486;-77
2021/04/16 01:15:24;;;;;;;6.20;4.27;;;5.00;99.90;;;;;;5076196;28;20404;-77
2021/04/16 01:17:51;;;;;;;5.83;4.90;;;4.90;99.90;;;;;;5072541;28;20169;-77
2021/04/16 01:20:22;;;;;;;8.00;4.83;;;4.80;99.90;;;;;;5076280;28;20405;-77
2021/04/16 01:23:03;;;;;;;5.97;5.47;;;4.80;99.90;;;;;;5073413;28;20447;-77
2021/04/16 01:25:29;;;;;;;5.80;5.20;;;4.80;99.90;;;;;;5072832;28;20776;-76
2021/04/16 01:27:55;;;;;;;11.33;5.53;;;4.80;99.90;;;;;;5069779;28;20436;-78
2021/04/16 01:30:24;;;;;;;6.83;5.03;;;4.80;99.90;;;;;;5074817;28;20423;-78
2021/04/16 01:32:52;;;;;;;5.90;5.30;;;4.80;99.90;;;;;;5076034;28;20204;-77
2021/04/16 01:35:21;;;;;;;7.67;5.03;;;4.80;99.90;;;;;;5072007;28;20420;-77
2021/04/16 01:37:47;;;;;;;8.10;5.50;;;4.80;99.90;;;;;;5072271;28;20466;-77
2021/04/16 01:40:13;;;;;;;6.20;5.23;;;4.70;99.90;;;;;;5072872;28;20417;-77
2021/04/16 01:42:40;;;;;;;8.47;5.50;;;4.70;99.90;;;;;;5071650;28;20194;-77
2021/04/16 01:45:23;;;;;;;8.07;6.00;;;4.70;99.90;;;;;;5072071;28;20507;-77
2021/04/16 01:47:56;;;;;;;6.60;5.63;;;4.70;99.90;;;;;;5080291;28;20791;-76
2021/04/16 01:50:23;;;;;;;5.60;4.87;;;4.60;99.90;;;;;;5073078;28;20408;-77
2021/04/16 01:52:48;;;;;;;6.60;5.97;;;4.60;99.90;;;;;;5072630;28;20609;-77
2021/04/16 01:55:14;;;;;;;7.50;5.03;;;4.60;99.90;;;;;;5070824;28;20891;-77
2021/04/16 01:57:40;;;;;;;6.07;5.47;;;4.60;99.90;;;;;;5072375;28;20184;-77
2021/04/16 02:00:14;;;;;;;6.70;5.73;;;4.60;99.90;;;;;;5075432;28;20167;-77
2021/04/16 02:02:39;;;;;;;7.90;6.00;;;4.60;99.90;;;;;;5081891;28;20282;-77
2021/04/16 02:05:06;;;;;;;7.73;5.77;;;4.50;99.90;;;;;;5077613;28;20420;-77
2021/04/16 02:07:31;;;;;;;8.47;6.30;;;4.50;99.90;;;;;;5076708;28;20288;-77
2021/04/16 02:09:57;;;;;;;6.17;5.57;;;4.50;99.90;;;;;;5074321;28;20470;-76
2021/04/16 02:12:25;;;;;;;6.00;5.33;;;4.50;99.90;;;;;;5075548;28;20209;-77
2021/04/16 02:14:52;;;;;;;7.33;5.73;;;4.50;99.90;;;;;;5075944;28;20182;-77
2021/04/16 02:17:21;;;;;;;6.60;5.93;;;4.50;99.90;;;;;;5076699;28;20415;-77
2021/04/16 02:19:47;;;;;;;7.77;4.57;;;4.40;99.90;;;;;;5074090;28;20428;-77
2021/04/16 02:22:16;;;;;;;8.70;5.90;;;4.40;99.90;;;;;;5076303;28;20505;-77
2021/04/16 02:24:42;;;;;;;6.90;6.13;;;4.40;99.90;;;;;;5075037;28;20948;-77
2021/04/16 02:27:07;;;;;;;8.13;5.67;;;4.30;99.90;;;;;;5075046;28;20460;-76
2021/04/16 02:29:33;;;;;;;8.70;7.10;;;4.20;99.90;;;;;;5072337;28;20213;-77
2021/04/16 02:31:59;;;;;;;6.93;6.20;;;4.30;99.90;;;;;;5070334;28;20622;-77
2021/04/16 02:34:27;;;;;;;8.70;6.37;;;4.30;99.90;;;;;;5079949;28;20443;-77
2021/04/16 02:37:00;;;;;;;7.50;6.00;;;4.30;99.90;;;;;;5079318;28;20162;-76
2021/04/16 02:39:26;;;;;;;7.53;6.20;;;4.30;99.90;;;;;;5075112;28;20416;-78
2021/04/16 02:41:52;;;;;;;8.63;5.70;;;4.30;99.90;;;;;;5079516;28;20459;-76
2021/04/16 02:44:19;;;;;;;7.60;5.43;;;4.30;99.90;;;;;;5080248;28;20414;-77
2021/04/16 02:46:45;;;;;;;6.17;5.37;;;4.40;99.90;;;;;;5078589;28;20424;-77
2021/04/16 02:49:11;;;;;;;7.93;6.33;;;4.40;99.90;;;;;;5075940;28;20416;-77
2021/04/16 02:51:36;;;;;;;11.53;6.40;;;4.50;99.90;;;;;;5060896;28;20468;-77
2021/04/16 02:54:03;;;;;;;7.57;6.77;;;4.50;99.90;;;;;;5074289;28;20201;-77
2021/04/16 02:56:28;;;;;;;6.37;5.33;;;4.60;99.90;;;;;;5074220;28;20601;-77
2021/04/16 02:58:56;;;;;;;9.53;7.23;;;4.60;99.90;;;;;;5073573;28;20408;-78
2021/04/16 03:01:21;;;;;;;8.20;7.00;;;4.60;99.90;;;;;;5078255;28;20197;-78
2021/04/16 03:03:47;;;;;;;8.67;5.47;;;4.60;99.90;;;;;;5079245;28;20435;-78
2021/04/16 03:06:12;;;;;;;7.30;5.50;;;4.60;99.90;;;;;;5078017;28;20249;-77
2021/04/16 03:08:38;;;;;;;9.73;6.80;;;4.60;99.90;;;;;;5074846;28;20290;-77
2021/04/16 03:11:10;;;;;;;7.77;6.97;;;4.60;99.90;;;;;;5072916;28;20201;-77
2021/04/16 03:13:36;;;;;;;8.67;6.70;;;4.60;99.90;;;;;;5075069;28;20185;-77
2021/04/16 03:16:01;;;;;;;10.30;6.60;;;4.60;99.90;;;;;;5075118;28;20427;-77
2021/04/16 03:18:27;;;;;;;8.40;6.77;;;4.60;99.90;;;;;;5075599;28;20905;-77
2021/04/16 03:20:53;;;;;;;10.50;6.83;;;4.70;99.90;;;;;;5074744;28;20213;-77
2021/04/16 03:23:19;;;;;;;7.20;6.00;;;4.70;99.90;;;;;;5075033;28;20185;-77
2021/04/16 03:25:44;;;;;;;7.47;5.70;;;4.80;99.90;;;;;;5074231;28;20268;-77
2021/04/16 03:28:10;;;;;;;8.07;6.50;;;4.90;99.90;;;;;;5074591;28;20279;-77
2021/04/16 03:30:36;;;;;;;6.90;5.90;;;4.90;99.90;;;;;;5073824;28;20680;-77
2021/04/16 03:33:02;;;;;;;8.00;6.27;;;4.90;99.90;;;;;;5074342;28;20174;-77
2021/04/16 03:35:28;;;;;;;7.67;6.30;;;5.00;99.90;;;;;;5072993;28;20205;-76
2021/04/16 03:37:53;;;;;;;8.33;6.00;;;5.00;99.90;;;;;;5074540;28;20407;-77
2021/04/16 03:40:22;;;;;;;8.80;5.90;;;5.00;99.90;;;;;;5074355;28;20420;-77
2021/04/16 03:42:48;;;;;;;9.70;6.70;;;5.10;99.90;;;;;;5072942;28;20197;-77
2021/04/16 03:45:15;;;;;;;8.70;6.90;;;5.10;99.90;;;;;;5074251;28;20420;-76
2021/04/16 03:47:44;;;;;;;7.10;5.40;;;5.20;99.90;;;;;;5072569;28;20196;-77
2021/04/16 03:50:12;;;;;;;7.57;6.50;;;5.20;99.90;;;;;;5072815;28;20415;-77
2021/04/16 03:52:38;;;;;;;8.33;7.40;;;5.10;99.90;;;;;;5074129;28;20474;-77
2021/04/16 03:55:04;;;;;;;8.90;6.97;;;5.20;99.90;;;;;;5072848;28;20420;-76
2021/04/16 03:57:31;;;;;;;7.10;6.40;;;5.20;99.90;;;;;;5072651;28;20596;-77
2021/04/16 03:59:57;;;;;;;7.03;6.03;;;5.20;99.90;;;;;;5073631;28;20924;-77
2021/04/16 04:02:23;;;;;;;7.40;6.20;;;5.30;99.90;;;;;;5070009;28;20440;-77
2021/04/16 04:04:49;;;;;;;6.87;6.13;;;5.20;99.90;;;;;;5080018;28;20416;-77
2021/04/16 04:07:15;;;;;;;9.33;7.17;;;5.30;99.90;;;;;;5077543;28;20416;-77
2021/04/16 04:09:41;;;;;;;9.47;6.13;;;5.30;99.90;;;;;;5082366;28;20431;-77
2021/04/16 04:12:07;;;;;;;7.57;6.27;;;5.40;99.90;;;;;;5073971;28;20554;-77
2021/04/16 04:14:33;;;;;;;7.73;5.63;;;5.50;99.90;;;;;;5073968;28;20170;-77
2021/04/16 04:17:04;;;;;;;12.40;7.27;;;5.30;99.90;;;;;;5072411;28;20416;-77
2021/04/16 04:19:31;;;;;;;10.80;7.60;;;5.10;99.90;;;;;;5074025;28;20183;-77
2021/04/16 04:21:58;;;;;;;7.77;6.93;;;5.20;99.90;;;;;;5073958;28;20439;-77
2021/04/16 04:24:24;;;;;;;9.10;7.90;;;5.10;99.90;;;;;;5073469;28;20417;-77
2021/04/16 04:26:50;;;;;;;10.73;6.93;;;5.00;99.90;;;;;;5073597;28;20448;-77
2021/04/16 04:29:19;;;;;;;8.20;7.30;;;5.10;99.90;;;;;;5073357;28;20741;-77
2021/04/16 04:31:48;;;;;;;6.67;6.07;;;5.20;99.90;;;;;;5073315;28;20820;-77
2021/04/16 04:34:19;;;;;;;9.50;6.10;;;5.20;99.90;;;;;;5072783;28;20407;-77
2021/04/16 04:36:46;;;;;;;9.77;7.70;;;5.20;99.90;;;;;;5073406;28;20504;-77
2021/04/16 04:39:12;;;;;;;7.77;5.70;;;5.30;99.90;;;;;;5073788;28;20795;-77
2021/04/16 04:41:39;;;;;;;7.40;6.20;;;5.40;99.90;;;;;;5073114;28;20493;-77
2021/04/16 04:44:05;;;;;;;8.73;5.97;;;5.30;99.90;;;;;;5072882;28;20420;-77
2021/04/16 04:46:31;;;;;;;7.40;6.70;;;5.30;99.90;;;;;;5073791;28;20423;-77
2021/04/16 04:48:57;;;;;;;7.27;6.17;;;5.10;99.90;;;;;;5072329;28;20507;-76
2021/04/16 04:51:22;;;;;;;10.73;6.20;;;5.30;99.90;;;;;;5073009;28;20198;-77
2021/04/16 04:53:48;;;;;;;8.20;6.33;;;5.40;99.90;;;;;;5073325;28;20678;-77
2021/04/16 04:56:13;;;;;;;10.10;6.30;;;5.50;99.90;;;;;;5073251;28;20179;-77
2021/04/16 04:58:39;;;;;;;8.93;6.00;;;5.60;99.90;;;;;;5073217;28;20211;-77
2021/04/16 05:01:05;;;;;;;10.00;6.23;;;5.60;99.90;;;;;;5072709;28;20194;-77
2021/04/16 05:03:30;;;;;;;10.03;6.47;;;5.70;99.90;;;;;;5072816;28;20185;-77
2021/04/16 05:05:56;;;;;;;6.73;5.77;;;5.70;99.90;;;;;;5073402;28;20178;-77
2021/04/16 05:08:21;;;;;;;10.60;7.90;;;5.70;99.90;;;;;;5073126;28;20182;-77
2021/04/16 05:10:47;;;;;;;8.50;6.40;;;5.70;99.90;;;;;;5072749;28;20182;-77
2021/04/16 05:13:12;;;;;;;7.33;6.57;;;5.60;99.90;;;;;;5073779;28;20171;-77
2021/04/16 05:15:38;;;;;;;7.17;5.93;;;5.50;99.90;;;;;;5071915;28;20172;-77
2021/04/16 05:18:03;;;;;;;6.83;5.87;;;5.40;99.90;;;;;;5073243;28;20205;-77
2021/04/16 05:20:29;;;;;;;8.10;6.97;;;5.50;99.90;;;;;;5072849;28;20440;-77
2021/04/16 05:22:54;;;;;;;10.13;7.17;;;5.40;99.90;;;;;;5072922;28;20240;-76
2021/04/16 05:25:20;;;;;;;12.47;8.27;;;5.30;99.90;;;;;;5070623;28;20577;-76
2021/04/16 05:27:46;;;;;;;9.80;7.60;;;5.40;99.90;;;;;;5071831;28;20693;-77
2021/04/16 05:30:12;;;;;;;13.47;7.73;;;5.20;99.90;;;;;;5070903;28;20188;-77
2021/04/16 05:32:38;;;;;;;81.53;42.37;;;5.30;99.90;;;;;;5065818;28;20206;-76
2021/04/16 05:35:07;;;;;;;45.33;25.17;;;5.40;99.90;;;;;;5072210;28;20397;-77
2021/04/16 05:37:32;;;;;;;23.57;14.00;;;5.40;99.90;;;;;;5076516;28;20189;-77
2021/04/16 05:39:58;;;;;;;12.27;8.60;;;5.50;99.90;;;;;;5076646;28;20403;-77
2021/04/16 05:42:24;;;;;;;10.40;7.60;;;5.60;99.90;;;;;;5075893;28;20443;-78
2021/04/16 05:44:49;;;;;;;8.40;6.80;;;5.70;99.90;;;;;;5074618;28;20239;-78
2021/04/16 05:47:15;;;;;;;7.93;6.30;;;5.60;99.90;;;;;;5074447;28;20181;-78
2021/04/16 05:49:41;;;;;;;10.63;7.90;;;5.70;99.90;;;;;;5074157;28;20205;-78
2021/04/16 05:52:07;;;;;;;17.97;8.10;;;5.70;99.90;;;;;;5075560;28;20248;-78
2021/04/16 05:54:32;;;;;;;10.13;7.30;;;5.70;99.90;;;;;;5071281;28;20184;-78
2021/04/16 05:56:58;;;;;;;9.77;7.20;;;5.70;99.90;;;;;;5066433;28;20481;-77
2021/04/16 05:59:23;;;;;;;8.90;7.70;;;5.80;99.90;;;;;;5075339;28;20575;-77
2021/04/16 06:01:49;;;;;;;11.40;7.83;;;5.90;99.90;;;;;;5075200;28;20674;-77
2021/04/16 06:04:21;;;;;;;10.40;7.30;;;5.90;99.90;;;;;;5073923;28;20174;-77
2021/04/16 06:06:47;;;;;;;10.33;8.93;;;5.90;99.90;;;;;;5074809;28;20256;-77
2021/04/16 06:09:13;;;;;;;11.03;7.87;;;5.90;99.90;;;;;;5078257;28;21004;-77
2021/04/16 06:11:39;;;;;;;13.17;7.40;;;6.00;99.90;;;;;;5075444;28;20485;-77
2021/04/16 06:14:05;;;;;;;10.30;7.37;;;6.20;99.90;;;;;;5081981;28;20443;-77
2021/04/16 06:16:31;;;;;;;7.70;6.90;;;6.20;99.90;;;;;;5082160;28;20408;-78
2021/04/16 06:18:57;;;;;;;9.40;7.00;;;6.30;99.90;;;;;;5076023;28;20411;-77
2021/04/16 06:21:22;;;;;;;10.90;7.23;;;6.40;99.90;;;;;;5076026;28;20956;-77
2021/04/16 06:23:48;;;;;;;13.20;6.90;;;6.50;99.90;;;;;;5074716;28;20583;-78
2021/04/16 06:26:13;;;;;;;9.33;8.40;;;6.50;99.90;;;;;;5076260;28;20206;-77
2021/04/16 06:28:39;;;;;;;13.90;8.03;;;6.50;99.90;;;;;;5083557;28;20173;-77
2021/04/16 06:31:04;;;;;;;11.27;8.33;;;6.60;99.90;;;;;;5079384;28;20202;-77
2021/04/16 06:33:32;;;;;;;14.00;7.57;;;6.60;99.90;;;;;;5075718;28;20257;-77
2021/04/16 06:36:04;;;;;;;8.50;6.80;;;6.70;99.90;;;;;;5076047;28;20177;-77
2021/04/16 06:38:36;;;;;;;11.37;8.00;;;6.90;99.90;;;;;;5075958;28;20963;-77
2021/04/16 06:41:04;;;;;;;12.60;7.53;;;6.90;99.90;;;;;;5074800;28;20456;-77
2021/04/16 06:43:39;;;;;;;10.63;8.27;;;7.00;99.90;;;;;;5075764;28;20397;-78
2021/04/16 06:46:09;;;;;;;9.10;7.20;;;7.10;99.90;;;;;;5062904;28;20421;-77
2021/04/16 06:48:35;;;;;;;7.93;6.47;;;7.10;99.90;;;;;;5073197;28;20860;-77
2021/04/16 06:51:01;;;;;;;7.20;6.47;;;7.20;99.90;;;;;;5074776;28;20543;-77
2021/04/16 06:53:54;;;;;;;8.30;6.77;;;7.30;99.90;;;;;;5075196;28;20257;-77
2021/04/16 06:56:47;;;;;;;10.73;7.30;;;7.50;99.90;;;;;;5073493;28;20463;-77
2021/04/16 06:59:44;;;;;;;9.53;7.53;;;7.60;99.90;;;;;;5073812;28;20424;-76
2021/04/16 07:02:15;;;;;;;7.13;6.43;;;7.70;99.90;;;;;;5066535;28;20505;-77
2021/04/16 07:04:50;;;;;;;8.73;7.30;;;7.90;99.90;;;;;;5073779;28;20416;-77
2021/04/16 07:07:24;;;;;;;9.13;7.00;;;7.90;99.90;;;;;;5058491;28;20428;-78
2021/04/16 07:09:59;;;;;;;8.53;7.63;;;8.00;99.90;;;;;;5054327;28;20389;-77
2021/04/16 07:12:25;;;;;;;8.43;6.60;;;8.10;99.90;;;;;;5070717;28;20483;-77
2021/04/16 07:14:58;;;;;;;10.00;7.53;;;8.20;99.90;;;;;;5074075;28;20404;-77
2021/04/16 07:17:30;;;;;;;7.60;6.43;;;8.40;99.90;;;;;;5073812;28;20413;-78
2021/04/16 07:19:56;;;;;;;9.60;6.80;;;8.70;99.90;;;;;;5072527;28;20425;-77
2021/04/16 07:22:21;;;;;;;8.23;6.03;;;9.00;99.90;;;;;;5073232;28;20443;-77
2021/04/16 07:24:49;;;;;;;11.53;6.77;;;9.20;99.90;;;;;;5074031;28;20220;-77
2021/04/16 07:27:19;;;;;;;7.80;6.50;;;9.40;99.90;;;;;;5074542;28;20177;-77
2021/04/16 07:29:55;;;;;;;9.83;6.70;;;9.50;99.90;;;;;;5072860;28;20473;-77
2021/04/16 07:32:28;;;;;;;10.70;7.67;;;9.70;99.90;;;;;;5072600;28;20455;-78
2021/04/16 07:34:58;;;;;;;7.73;6.33;;;9.90;99.90;;;;;;5072995;28;20409;-77
2021/04/16 07:37:41;;;;;;;8.77;6.07;;;9.90;99.90;;;;;;5074517;28;20432;-77
2021/04/16 07:40:26;;;;;;;10.10;7.20;;;9.90;99.90;;;;;;5074429;28;20758;-78
2021/04/16 07:42:52;;;;;;;10.80;6.33;;;9.90;99.90;;;;;;5072808;28;20447;-77
2021/04/16 07:45:38;;;;;;;7.67;6.87;;;9.90;99.90;;;;;;5073230;28;20416;-78
2021/04/16 07:48:19;;;;;;;7.77;5.87;;;9.90;99.90;;;;;;5073350;28;20658;-77
2021/04/16 07:50:47;;;;;;;6.77;5.73;;;9.90;99.90;;;;;;5073434;28;20476;-77
2021/04/16 07:53:33;;;;;;;7.23;6.53;;;9.90;99.90;;;;;;5074107;28;20412;-78
2021/04/16 07:56:18;;;;;;;8.03;6.13;;;10.00;99.90;;;;;;5074288;28;20510;-78
2021/04/16 07:59:04;;;;;;;11.33;6.97;;;10.10;99.90;;;;;;5072093;28;20964;-77
2021/04/16 08:01:37;;;;;;;8.23;5.47;;;10.00;99.90;;;;;;5069874;28;20441;-78
2021/04/16 08:04:20;;;;;;;11.07;6.60;;;10.10;99.90;;;;;;5057545;28;20420;-78
2021/04/16 08:06:49;;;;;;;9.87;7.03;;;10.20;99.90;;;;;;5074077;28;20431;-78
2021/04/16 08:09:35;;;;;;;7.60;6.80;;;10.30;99.90;;;;;;5073979;28;20416;-78
2021/04/16 08:12:01;;;;;;;7.63;6.40;;;10.30;99.90;;;;;;5073408;28;20464;-78
2021/04/16 08:14:30;;;;;;;11.60;6.50;;;10.40;99.90;;;;;;5072990;28;20944;-78
2021/04/16 08:17:01;;;;;;;10.13;6.40;;;10.40;99.90;;;;;;5072614;28;20166;-78
2021/04/16 08:19:30;;;;;;;6.90;6.00;;;10.50;99.90;;;;;;5073097;28;20408;-78
2021/04/16 08:22:17;;;;;;;8.90;6.33;;;10.60;99.90;;;;;;5073831;28;20535;-78
2021/04/16 08:25:05;;;;;;;7.50;6.30;;;10.70;99.90;;;;;;5064222;28;20412;-78
2021/04/16 08:27:55;;;;;;;6.20;5.23;;;10.80;99.90;;;;;;5072836;28;20515;-77
2021/04/16 08:30:37;;;;;;;9.30;6.10;;;10.80;99.90;;;;;;5074264;28;20435;-78
2021/04/16 08:33:34;;;;;;;7.00;6.23;;;11.00;99.90;;;;;;5074235;28;21195;-78
2021/04/16 08:36:18;;;;;;;6.53;5.53;;;10.90;99.90;;;;;;5071656;28;20434;-77
2021/04/16 08:39:27;;;;;;;7.47;6.70;;;10.70;99.90;;;;;;5064998;28;20520;-78
2021/04/16 08:42:04;;;;;;;7.67;6.60;;;10.70;99.90;;;;;;5068009;28;20456;-78
2021/04/16 08:44:33;;;;;;;12.00;7.03;;;10.70;99.90;;;;;;5066971;28;20427;-78
2021/04/16 08:47:00;;;;;;;8.37;6.53;;;10.70;99.90;;;;;;5079228;28;20423;-78
2021/04/16 08:49:27;;;;;;;9.80;6.53;;;10.70;99.90;;;;;;5080797;28;20416;-78
2021/04/16 08:52:20;;;;;;;8.63;6.10;;;10.60;99.90;;;;;;5074049;28;20460;-78
2021/04/16 08:54:48;;;;;;;9.43;5.30;;;10.70;99.90;;;;;;5072759;28;20422;-78
2021/04/16 08:57:35;;;;;;;8.27;5.67;;;10.70;99.90;;;;;;5072744;28;20413;-78
2021/04/16 09:00:08;;;;;;;11.70;6.47;;;10.80;99.90;;;;;;5067968;28;20780;-78
2021/04/16 09:02:44;;;;;;;7.60;6.20;;;10.90;99.90;;;;;;5072723;28;20522;-78
2021/04/16 09:05:12;;;;;;;8.27;7.00;;;11.00;99.90;;;;;;5073129;28;20429;-79
2021/04/16 09:07:45;;;;;;;11.80;6.30;;;11.00;99.90;;;;;;5072592;28;20836;-78
2021/04/16 09:10:13;;;;;;;10.77;7.10;;;11.10;99.90;;;;;;5075320;28;20500;-78
2021/04/16 09:12:39;;;;;;;6.70;5.30;;;11.10;99.90;;;;;;5076785;28;20460;-79
2021/04/16 09:15:18;;;;;;;6.80;5.20;;;11.20;99.90;;;;;;5077428;28;20491;-78
2021/04/16 09:17:52;;;;;;;10.80;5.20;;;11.30;99.90;;;;;;5084321;28;20264;-78
2021/04/16 09:20:34;;;;;;;9.37;5.07;;;11.40;99.90;;;;;;5087989;28;20455;-78
2021/04/16 09:23:03;;;;;;;6.80;5.27;;;11.50;99.90;;;;;;5084785;28;20418;-78
2021/04/16 09:25:32;;;;;;;6.10;5.50;;;11.80;99.90;;;;;;5078050;28;20420;-78
2021/04/16 09:28:22;;;;;;;7.23;5.23;;;11.90;99.90;;;;;;5076871;28;20988;-78
2021/04/16 09:31:26;;;;;;;11.87;4.43;;;12.30;99.90;;;;;;5078867;28;20746;-78
2021/04/16 09:34:07;;;;;;;6.47;4.70;;;12.80;99.90;;;;;;5028842;28;20455;-79
2021/04/16 09:36:39;;;;;;;4.97;4.40;;;13.00;99.90;;;;;;5060822;28;20428;-78
2021/04/16 09:39:16;;;;;;;6.00;4.80;;;13.30;99.90;;;;;;5083457;28;20455;-78
2021/04/16 09:41:43;;;;;;;7.03;5.10;;;13.70;99.90;;;;;;5082340;28;20459;-78
2021/04/16 09:44:27;;;;;;;4.80;4.27;;;13.90;99.90;;;;;;5082453;28;20431;-78
2021/04/16 09:47:03;;;;;;;9.40;4.10;;;13.90;99.10;;;;;;5083545;28;20453;-78
2021/04/16 09:49:38;;;;;;;9.43;4.50;;;14.00;98.10;;;;;;5080458;28;20419;-78
2021/04/16 09:52:26;;;;;;;5.80;4.90;;;14.50;99.80;;;;;;5080682;28;20506;-78
2021/04/16 09:54:52;;;;;;;7.47;4.47;;;14.80;94.50;;;;;;5070748;28;20846;-78
2021/04/16 09:57:17;;;;;;;5.27;3.73;;;14.90;94.70;;;;;;5079898;28;20452;-78
2021/04/16 09:59:45;;;;;;;11.90;3.97;;;14.80;93.50;;;;;;5078987;28;20202;-78
2021/04/16 10:02:10;;;;;;;5.23;3.57;;;14.70;88.50;;;;;;5078036;28;20547;-77
2021/04/16 10:05:01;;;;;;;7.03;4.17;;;15.10;84.70;;;;;;5076810;28;20426;-77
2021/04/16 10:07:38;;;;;;;4.30;3.57;;;14.90;78.30;;;;;;5076850;28;20190;-77
2021/04/16 10:10:13;;;;;;;4.73;3.07;;;15.30;78.90;;;;;;5071219;28;20964;-77
2021/04/16 10:12:40;;;;;;;4.47;3.50;;;15.90;74.00;;;;;;5081403;28;20516;-77
2021/04/16 10:15:22;;;;;;;3.30;3.00;;;16.30;68.70;;;;;;5087925;28;20412;-78
2021/04/16 10:18:00;;;;;;;2.83;2.63;;;16.00;69.70;;;;;;5084310;28;20427;-77
2021/04/16 10:20:29;;;;;;;5.00;3.80;;;15.90;63.00;;;;;;5076008;28;20389;-78
2021/04/16 10:23:05;;;;;;;3.63;2.83;;;15.40;63.40;;;;;;5077497;28;20456;-78
2021/04/16 10:43:49;;;;;;;6.90;3.83;;;15.10;62.30;;;;;;5077338;28;20450;-78
2021/04/16 11:20:03;;;;;;;9.80;4.20;;;16.10;62.30;;;;;;5076653;28;20459;-78
2021/04/16 12:40:24;;;;;;;4.13;2.37;;;16.60;55.30;;;;;;5075501;28;20779;-78
2021/04/16 12:42:51;;;;;;;2.47;2.07;;;16.50;55.00;;;;;;5070062;28;20441;-78
2021/04/16 12:45:18;;;;;;;3.17;2.00;;;16.60;55.20;;;;;;5076312;28;20425;-78
2021/04/16 12:47:44;;;;;;;3.00;2.40;;;16.50;53.80;;;;;;5069271;28;20462;-78
2021/04/16 12:50:13;;;;;;;5.13;2.50;;;16.30;52.60;;;;;;5077232;28;20412;-78
2021/04/16 12:52:38;;;;;;;2.77;2.50;;;15.90;51.60;;;;;;5079544;28;20507;-78
2021/04/16 12:55:05;;;;;;;3.17;2.30;;;15.80;52.40;;;;;;5079309;28;20449;-77
2021/04/16 12:57:38;;;;;;;3.07;2.67;;;15.60;52.90;;;;;;5083644;28;20261;-79
2021/04/16 13:00:09;;;;;;;2.40;2.17;;;15.70;53.20;;;;;;5075377;28;20541;-77
2021/04/16 13:02:35;;;;;;;3.37;2.70;;;15.90;50.80;;;;;;5080726;28;21152;-78
2021/04/16 13:05:04;;;;;;;2.90;2.30;;;16.10;51.80;;;;;;5075880;28;20417;-78
2021/04/16 13:07:30;;;;;;;3.03;2.43;;;16.20;48.90;;;;;;5074132;28;20842;-78
2021/04/16 13:09:56;;;;;;;2.83;2.23;;;16.30;50.50;;;;;;5074189;28;20420;-78
2021/04/16 13:12:21;;;;;;;2.77;2.43;;;16.10;50.30;;;;;;5074150;28;20327;-78
2021/04/16 13:14:48;;;;;;;3.90;2.90;;;15.80;50.10;;;;;;5073745;28;20190;-77
2021/04/16 13:17:19;;;;;;;2.53;2.20;;;15.60;49.40;;;;;;5073925;28;20166;-78
2021/04/16 13:19:45;;;;;;;4.47;2.20;;;15.90;51.10;;;;;;5072039;28;20802;-78
2021/04/16 13:22:16;;;;;;;2.80;2.30;;;16.40;48.80;;;;;;5072705;28;20440;-78
2021/04/16 13:24:44;;;;;;;2.80;2.50;;;16.30;50.70;;;;;;5065364;28;20428;-78
2021/04/16 13:27:13;;;;;;;3.50;2.10;;;16.50;49.10;;;;;;5091344;28;20431;-78
2021/04/16 13:29:39;;;;;;;2.13;1.93;;;16.20;50.00;;;;;;5076476;28;20424;-77
2021/04/16 13:32:09;;;;;;;4.50;2.90;;;16.20;48.80;;;;;;5084609;28;20927;-78
2021/04/16 13:34:38;;;;;;;3.23;2.13;;;16.30;50.20;;;;;;5083910;28;20412;-78
2021/04/16 13:37:04;;;;;;;2.70;2.00;;;16.50;47.20;;;;;;5084153;28;20416;-78
2021/04/16 13:39:30;;;;;;;5.70;2.73;;;16.70;48.60;;;;;;5083376;28;20419;-77
2021/04/16 13:41:56;;;;;;;2.43;2.17;;;17.10;49.40;;;;;;5080591;28;20447;-78
2021/04/16 13:44:21;;;;;;;4.20;2.63;;;17.40;47.60;;;;;;5075192;28;20171;-78
2021/04/16 13:46:48;;;;;;;3.40;2.13;;;17.60;49.00;;;;;;5085660;28;20200;-78
2021/04/16 13:49:19;;;;;;;3.90;2.57;;;17.80;49.90;;;;;;5081283;28;20209;-78
2021/04/16 13:51:45;;;;;;;3.10;2.90;;;17.90;47.60;;;;;;5077882;28;20464;-78
2021/04/16 13:54:12;;;;;;;2.40;2.20;;;17.50;46.70;;;;;;5077502;28;20417;-78
2021/04/16 13:56:38;;;;;;;3.30;2.23;;;17.10;45.60;;;;;;5075610;28;20209;-78
2021/04/16 13:59:04;;;;;;;3.87;2.90;;;17.10;46.50;;;;;;5080716;28;20432;-77
2021/04/16 14:01:30;;;;;;;3.83;2.27;;;17.10;47.40;;;;;;5081202;28;20499;-78
2021/04/16 14:04:03;;;;;;;2.83;2.17;;;16.80;46.90;;;;;;5082000;28;20820;-78
2021/04/16 14:06:37;;;;;;;2.37;2.17;;;16.30;46.60;;;;;;5083973;28;20882;-78
2021/04/16 14:09:09;;;;;;;2.50;2.20;;;16.10;47.90;;;;;;5082390;28;20425;-79
2021/04/16 14:11:36;;;;;;;2.53;2.10;;;16.00;47.20;;;;;;5075972;28;20470;-78
2021/04/16 14:14:13;;;;;;;2.37;2.10;;;16.20;47.60;;;;;;5079748;28;20427;-78
2021/04/16 14:16:41;;;;;;;3.30;2.60;;;16.20;47.20;;;;;;5085421;28;20451;-78
2021/04/16 14:19:46;;;;;;;2.37;2.17;;;16.20;47.30;;;;;;5077527;28;20412;-78
2021/04/16 14:22:14;;;;;;;3.10;2.10;;;16.50;48.60;;;;;;5088502;28;20431;-79
2021/04/16 14:24:40;;;;;;;2.80;2.40;;;16.60;47.50;;;;;;5078691;28;20775;-78
2021/04/16 14:27:07;;;;;;;1.90;1.73;;;16.80;48.20;;;;;;5076934;28;20417;-78
2021/04/16 14:29:33;;;;;;;2.60;2.40;;;16.80;46.00;;;;;;5077677;28;20832;-78
2021/04/16 14:31:58;;;;;;;4.27;1.90;;;17.00;47.20;;;;;;5076563;28;20507;-78
2021/04/16 14:34:29;;;;;;;2.40;2.20;;;17.20;46.40;;;;;;5077711;28;20163;-79
2021/04/16 14:36:57;;;;;;;3.60;2.63;;;17.30;46.60;;;;;;5079418;28;20178;-79
2021/04/16 14:39:23;;;;;;;3.83;2.43;;;16.80;45.40;;;;;;5090133;28;20432;-79
2021/04/16 14:41:48;;;;;;;3.03;2.40;;;16.20;46.50;;;;;;5088110;28;20463;-79
2021/04/16 14:44:16;;;;;;;4.47;2.60;;;16.10;47.10;;;;;;5084384;28;20174;-79
2021/04/16 14:46:52;;;;;;;3.60;2.80;;;16.10;46.50;;;;;;5089167;28;20176;-79
2021/04/16 14:49:27;;;;;;;5.87;4.60;;;15.90;47.10;;;;;;5088853;28;20421;-79
2021/04/16 14:51:54;;;;;;;5.30;2.27;;;15.80;47.50;;;;;;5089028;28;20523;-78
2021/04/16 14:54:30;;;;;;;5.30;2.60;;;15.80;48.00;;;;;;5088115;28;20428;-79
2021/04/16 14:57:00;;;;;;;2.80;2.10;;;15.70;47.20;;;;;;5086902;28;20423;-79
2021/04/16 14:59:52;;;;;;;3.10;2.50;;;15.60;47.90;;;;;;5083111;28;20748;-79
2021/04/16 15:02:29;;;;;;;3.60;2.60;;;15.50;49.20;;;;;;5093946;28;20465;-78
2021/04/16 15:05:10;;;;;;;2.20;2.00;;;15.70;48.90;;;;;;5089310;28;20428;-79
2021/04/16 15:08:13;;;;;;;2.47;2.27;;;15.90;48.80;;;;;;5080854;28;20421;-79
2021/04/16 15:10:59;;;;;;;6.93;3.00;;;15.80;48.90;;;;;;5059711;28;20456;-79
2021/04/16 15:13:30;;;;;;;3.13;2.60;;;15.60;48.60;;;;;;5076077;28;21004;-79
2021/04/16 15:16:02;;;;;;;4.10;3.10;;;15.40;48.70;;;;;;5065101;28;20415;-78